createdAt,value
2019-03-19T00:00:36.362Z,102432.98
2019-03-19T00:03:10.030Z,102427.74
2019-03-19T00:05:43.365Z,102425.92
2019-03-19T00:08:16.681Z,102429.34
2019-03-19T00:10:50.000Z,102422.40
2019-03-19T00:13:23.339Z,102421.93
2019-03-19T00:15:56.916Z,102420.61
2019-03-19T00:18:30.304Z,102416.22
2019-03-19T00:21:03.667Z,102414.47
2019-03-19T00:23:37.032Z,102420.49
2019-03-19T00:26:10.430Z,102420.05
2019-03-19T00:28:43.824Z,102421.69
2019-03-19T00:31:17.203Z,102425.12
2019-03-19T00:33:50.564Z,102426.39
2019-03-19T00:36:23.964Z,102422.92
2019-03-19T00:38:57.358Z,102426.74
2019-03-19T00:41:30.668Z,102420.23
2019-03-19T00:44:04.018Z,102430.14
2019-03-19T00:46:37.317Z,102429.64
2019-03-19T00:49:10.647Z,102432.20
2019-03-19T00:51:44.033Z,102433.06
2019-03-19T00:54:18.466Z,102437.36
2019-03-19T00:56:51.799Z,102436.91
2019-03-19T00:59:25.146Z,102343.13
2019-03-19T01:01:58.463Z,102433.78
2019-03-19T01:04:32.020Z,102439.38
2019-03-19T01:07:05.384Z,102446.69
2019-03-19T01:09:38.938Z,102439.33
2019-03-19T01:12:12.500Z,102434.50
2019-03-19T01:14:45.816Z,102446.58
2019-03-19T01:17:19.176Z,102456.11
2019-03-19T01:19:52.475Z,102463.40
2019-03-19T01:22:25.833Z,102457.72
2019-03-19T01:24:59.141Z,102462.86
2019-03-19T01:27:32.567Z,102466.70
2019-03-19T01:30:11.091Z,102464.96
2019-03-19T01:32:44.444Z,102471.39
2019-03-19T01:35:18.748Z,102469.21
2019-03-19T01:37:52.102Z,102472.20
2019-03-19T01:40:25.416Z,102470.45
2019-03-19T01:42:59.014Z,102473.45
2019-03-19T01:45:32.322Z,102471.22
2019-03-19T01:48:05.662Z,102475.53
2019-03-19T01:50:39.079Z,102476.38
2019-03-19T01:53:12.381Z,102479.80
2019-03-19T01:55:45.550Z,102479.80
2019-03-19T01:58:18.914Z,102481.48
2019-03-19T02:00:52.294Z,102488.77
2019-03-19T02:03:25.663Z,102496.52
2019-03-19T02:05:58.997Z,102485.69
2019-03-19T02:08:32.461Z,102482.16
2019-03-19T02:11:05.871Z,102478.63
2019-03-19T02:13:39.185Z,102481.22
2019-03-19T02:16:12.525Z,102487.26
2019-03-19T02:18:46.046Z,102480.75
2019-03-19T02:21:19.379Z,102480.72
2019-03-19T02:23:54.263Z,102477.25
2019-03-19T02:26:28.630Z,102477.22
2019-03-19T02:29:01.941Z,102478.94
2019-03-19T02:31:35.272Z,102488.35
2019-03-19T02:34:08.572Z,102495.68
2019-03-19T02:36:41.915Z,102493.06
2019-03-19T02:39:15.321Z,102496.86
2019-03-19T02:41:49.043Z,102495.98
2019-03-19T02:44:22.623Z,102495.92
2019-03-19T02:46:56.045Z,102500.20
2019-03-19T02:49:29.399Z,102506.20
2019-03-19T02:52:02.873Z,102510.94
2019-03-19T02:54:36.380Z,102503.58
2019-03-19T02:57:09.687Z,102506.59
2019-03-19T02:59:43.142Z,102511.33
2019-03-19T03:02:16.479Z,102505.69
2019-03-19T03:04:49.838Z,102509.13
2019-03-19T03:07:23.149Z,102509.91
2019-03-19T03:09:56.491Z,102514.61
2019-03-19T03:12:29.945Z,102510.27
2019-03-19T03:15:03.274Z,102517.98
2019-03-19T03:17:38.271Z,102515.75
2019-03-19T03:20:13.155Z,102520.06
2019-03-19T03:22:46.502Z,102515.69
2019-03-19T03:25:19.793Z,102517.38
2019-03-19T03:27:53.149Z,102516.53
2019-03-19T03:30:26.562Z,102516.50
2019-03-19T03:32:59.899Z,102515.63
2019-03-19T03:35:33.278Z,102521.59
2019-03-19T03:38:07.702Z,102515.49
2019-03-19T03:40:41.430Z,102516.76
2019-03-19T03:43:15.125Z,102521.48
2019-03-19T03:45:48.503Z,102517.50
2019-03-19T03:48:21.932Z,102525.67
2019-03-19T03:50:55.355Z,102520.88
2019-03-19T03:53:28.674Z,102521.30
2019-03-19T03:56:02.013Z,102528.13
2019-03-19T03:58:35.352Z,102530.27
2019-03-19T04:01:10.311Z,102536.29
2019-03-19T04:03:45.249Z,102538.39
2019-03-19T04:06:18.586Z,102533.21
2019-03-19T04:08:51.946Z,102525.79
2019-03-19T04:11:25.436Z,102532.76
2019-03-19T04:13:58.740Z,102535.70
2019-03-19T04:16:32.434Z,102543.86
2019-03-19T04:19:05.644Z,102544.70
2019-03-19T04:21:38.981Z,102537.31
2019-03-19T04:24:12.331Z,102537.73
2019-03-19T04:26:45.848Z,102544.56
2019-03-19T04:29:19.166Z,102538.02
2019-03-19T04:31:52.731Z,102547.05
2019-03-19T04:34:26.053Z,102550.91
2019-03-19T04:36:59.472Z,102555.14
2019-03-19T04:39:33.032Z,102554.38
2019-03-19T04:42:06.480Z,102553.14
2019-03-19T04:44:39.828Z,102558.78
2019-03-19T04:47:13.308Z,102553.31
2019-03-19T04:49:46.609Z,102549.21
2019-03-19T04:52:19.987Z,102552.48
2019-03-19T04:54:53.296Z,102550.12
2019-03-19T04:57:27.318Z,102550.74
2019-03-19T05:00:00.800Z,102559.23
2019-03-19T05:02:34.163Z,102561.26
2019-03-19T05:05:09.247Z,102556.86
2019-03-19T05:07:42.627Z,102559.42
2019-03-19T05:10:18.176Z,102554.53
2019-03-19T05:12:51.559Z,102556.62
2019-03-19T05:15:24.868Z,102560.89
2019-03-19T05:17:58.194Z,102562.51
2019-03-19T05:20:31.348Z,102568.53
2019-03-19T05:23:04.791Z,102570.13
2019-03-19T05:25:38.257Z,102569.06
2019-03-19T05:28:12.062Z,102570.58
2019-03-19T05:30:45.377Z,102576.44
2019-03-19T05:33:19.574Z,102582.29
2019-03-19T05:35:53.056Z,102590.27
2019-03-19T05:38:26.369Z,102585.28
2019-03-19T05:40:59.743Z,102576.72
2019-03-19T05:43:33.083Z,102580.80
2019-03-19T05:46:06.534Z,102584.40
2019-03-19T05:48:40.036Z,102586.31
2019-03-19T05:51:14.594Z,102587.75
2019-03-19T05:53:47.993Z,102593.08
2019-03-19T05:56:21.390Z,102592.66
2019-03-19T05:58:54.725Z,102595.71
2019-03-19T06:01:28.142Z,102595.27
2019-03-19T06:04:01.453Z,102597.40
2019-03-19T06:06:34.989Z,102602.54
2019-03-19T06:09:08.534Z,102606.86
2019-03-19T06:11:42.182Z,102606.31
2019-03-19T06:14:15.490Z,102608.04
2019-03-19T06:16:48.912Z,102610.11
2019-03-19T06:19:22.589Z,102609.20
2019-03-19T06:21:56.832Z,102612.17
2019-03-19T06:24:31.350Z,102608.21
2019-03-19T06:27:04.956Z,102611.99
2019-03-19T06:29:38.370Z,102613.16
2019-03-19T06:32:12.095Z,102612.61
2019-03-19T06:34:45.907Z,102611.22
2019-03-19T06:37:20.442Z,102612.00
2019-03-19T06:39:54.171Z,102610.58
2019-03-19T06:42:28.387Z,102616.07
2019-03-19T06:45:01.797Z,102616.36
2019-03-19T06:47:35.344Z,102621.77
2019-03-19T06:50:11.091Z,102620.70
2019-03-19T06:52:44.564Z,102629.69
2019-03-19T06:55:18.787Z,102627.97
2019-03-19T06:57:52.379Z,102631.99
2019-03-19T07:00:27.268Z,102634.84
2019-03-19T07:03:00.804Z,102650.73
2019-03-19T07:05:34.467Z,102650.09
2019-03-19T07:08:07.808Z,102655.06
2019-03-19T07:10:41.277Z,102653.83
2019-03-19T07:13:14.815Z,102657.89
2019-03-19T07:15:48.094Z,102660.30
2019-03-19T07:18:21.564Z,102663.69
2019-03-19T07:20:54.878Z,102668.73
2019-03-19T07:23:28.241Z,102672.83
2019-03-19T07:26:03.389Z,102668.48
2019-03-19T07:28:38.683Z,102671.03
2019-03-19T07:31:12.567Z,102672.45
2019-03-19T07:33:46.378Z,102678.97
2019-03-19T07:36:19.857Z,102679.96
2019-03-19T07:38:53.305Z,102685.00
2019-03-19T07:41:26.856Z,102681.81
2019-03-19T07:44:00.341Z,102682.66
2019-03-19T07:46:33.954Z,102679.94
2019-03-19T07:49:07.344Z,102684.61
2019-03-19T07:51:40.904Z,102695.91
2019-03-19T07:54:14.229Z,102689.89
2019-03-19T07:56:47.760Z,102687.94
2019-03-19T07:59:21.301Z,102691.55
2019-03-19T08:01:54.689Z,102703.84
2019-03-19T08:04:29.167Z,102703.93
2019-03-19T08:07:04.145Z,102711.63
2019-03-19T08:09:37.641Z,102708.46
2019-03-19T08:12:12.343Z,102706.20
2019-03-19T08:14:45.797Z,102710.95
2019-03-19T08:17:18.978Z,102706.50
2019-03-19T08:19:52.375Z,102707.27
2019-03-19T08:22:26.050Z,102713.69
2019-03-19T08:24:59.641Z,102714.40
2019-03-19T08:27:33.059Z,102717.23
2019-03-19T08:30:12.202Z,102721.28
2019-03-19T08:32:45.828Z,102722.29
2019-03-19T08:35:20.799Z,102721.86
2019-03-19T08:37:54.167Z,102725.86
2019-03-19T08:40:27.479Z,102729.87
2019-03-19T08:43:02.457Z,102734.67
2019-03-19T08:45:35.797Z,102732.06
2019-03-19T08:48:09.156Z,102729.03
2019-03-19T08:50:42.589Z,102738.57
2019-03-19T08:53:15.945Z,102739.09
2019-03-19T08:55:50.865Z,102746.49
2019-03-19T08:58:24.237Z,102744.30
2019-03-19T09:00:57.478Z,102741.28
2019-03-19T09:03:30.883Z,102742.89
2019-03-19T09:06:04.221Z,102742.41
2019-03-19T09:08:37.651Z,102744.40
2019-03-19T09:11:10.974Z,102743.45
2019-03-19T09:13:44.569Z,102738.32
2019-03-19T09:16:17.866Z,102745.70
2019-03-19T09:18:51.266Z,102750.81
2019-03-19T09:21:24.581Z,102747.73
2019-03-19T09:23:58.031Z,102753.37
2019-03-19T09:26:31.525Z,102756.03
2019-03-19T09:29:05.136Z,102759.89
2019-03-19T09:31:38.425Z,102764.81
2019-03-19T09:34:11.814Z,102765.14
2019-03-19T09:36:45.138Z,102764.63
2019-03-19T09:39:18.642Z,102769.83
2019-03-19T09:41:51.959Z,102728.95
2019-03-19T09:44:25.372Z,102765.70
2019-03-19T09:46:58.694Z,102768.75
2019-03-19T09:49:32.191Z,102776.22
2019-03-19T09:52:05.513Z,102774.00
2019-03-19T09:54:38.931Z,102781.34
2019-03-19T09:57:13.713Z,102789.22
2019-03-19T09:59:47.214Z,102784.46
2019-03-19T10:02:20.747Z,102789.36
2019-03-19T10:04:55.162Z,102785.46
2019-03-19T10:07:28.480Z,102784.88
2019-03-19T10:10:02.332Z,102789.63
2019-03-19T10:12:35.812Z,102780.92
2019-03-19T10:15:10.879Z,102775.41
2019-03-19T10:17:44.206Z,102783.59
2019-03-19T10:20:20.897Z,102782.78
2019-03-19T10:22:54.463Z,102778.53
2019-03-19T10:25:29.488Z,102776.30
2019-03-19T10:28:02.910Z,102776.13
2019-03-19T10:30:36.316Z,102779.47
2019-03-19T10:33:10.972Z,102775.03
2019-03-19T10:35:44.511Z,102779.87
2019-03-19T10:38:18.134Z,102780.31
2019-03-19T10:40:51.534Z,102779.44
2019-03-19T10:43:25.339Z,102778.14
2019-03-19T10:45:58.737Z,102780.29
2019-03-19T10:48:32.206Z,102775.91
2019-03-19T10:51:05.610Z,102781.11
2019-03-19T10:53:38.970Z,102780.29
2019-03-19T10:56:12.291Z,102778.16
2019-03-19T10:58:45.986Z,102776.39
2019-03-19T11:01:19.400Z,102775.01
2019-03-19T11:03:52.833Z,102776.26
2019-03-19T11:06:26.315Z,102778.51
2019-03-19T11:08:59.788Z,102769.81
2019-03-19T11:11:33.222Z,102775.56
2019-03-19T11:14:06.898Z,102774.69
2019-03-19T11:16:40.269Z,102779.89
2019-03-19T11:19:13.594Z,102776.39
2019-03-19T11:21:47.165Z,102776.30
2019-03-19T11:24:20.641Z,102782.89
2019-03-19T11:26:54.170Z,102781.22
2019-03-19T11:29:27.689Z,102778.59
2019-03-19T11:32:01.181Z,102774.24
2019-03-19T11:34:34.510Z,102781.19
2019-03-19T11:37:07.851Z,102789.84
2019-03-19T11:39:41.279Z,102786.39
2019-03-19T11:42:14.699Z,102786.87
2019-03-19T11:44:48.120Z,102789.47
2019-03-19T11:47:21.529Z,102798.49
2019-03-19T11:49:54.897Z,102796.88
2019-03-19T11:52:28.060Z,102802.95
2019-03-19T11:55:01.475Z,102802.63
2019-03-19T11:57:34.691Z,102790.79
2019-03-19T12:00:25.166Z,102800.72
2019-03-19T12:02:58.446Z,102797.24
2019-03-19T12:05:31.947Z,102797.75
2019-03-19T12:08:05.378Z,102792.05
2019-03-19T12:10:38.814Z,102793.84
2019-03-19T12:13:12.154Z,102795.63
2019-03-19T12:15:45.546Z,102795.23
2019-03-19T12:18:20.066Z,102803.45
2019-03-19T12:20:53.464Z,102805.55
2019-03-19T12:23:26.945Z,102805.16
2019-03-19T12:26:00.642Z,102807.33
2019-03-19T12:28:39.554Z,102803.43
2019-03-19T12:31:09.238Z,102813.11
2019-03-19T12:33:42.681Z,102808.00
2019-03-19T12:36:16.034Z,102803.24
2019-03-19T12:38:49.438Z,102805.89
2019-03-19T12:41:22.768Z,102794.31
2019-03-19T12:43:56.273Z,102795.31
2019-03-19T12:46:29.673Z,102793.70
2019-03-19T12:49:03.129Z,102796.89
2019-03-19T12:51:37.547Z,102788.33
2019-03-19T12:54:11.047Z,102794.53
2019-03-19T12:56:44.373Z,102792.53
2019-03-19T12:59:20.423Z,102786.63
2019-03-19T13:01:53.146Z,102787.64
2019-03-19T13:04:26.706Z,102785.13
2019-03-19T13:07:00.218Z,102786.63
2019-03-19T13:09:33.992Z,102782.42
2019-03-19T13:12:07.336Z,102781.25
2019-03-19T13:14:40.733Z,102780.48
2019-03-19T13:17:14.067Z,102770.08
2019-03-19T13:19:47.507Z,102775.77
2019-03-19T13:22:20.878Z,102778.81
2019-03-19T13:24:54.422Z,102777.45
2019-03-19T13:27:28.011Z,102771.80
2019-03-19T13:30:01.458Z,102774.38
2019-03-19T13:32:34.853Z,102770.04
2019-03-19T13:35:08.868Z,102771.77
2019-03-19T13:37:42.268Z,102771.77
2019-03-19T13:40:16.660Z,102770.83
2019-03-19T13:42:50.029Z,102770.01
2019-03-19T13:45:23.984Z,102769.94
2019-03-19T13:47:57.272Z,102774.26
2019-03-19T13:50:30.702Z,102776.41
2019-03-19T13:53:04.406Z,102779.44
2019-03-19T13:55:37.911Z,102777.20
2019-03-19T13:58:11.301Z,102777.64
2019-03-19T14:00:55.100Z,102776.35
2019-03-19T14:03:19.735Z,102780.33
2019-03-19T14:05:53.080Z,102781.55
2019-03-19T14:08:26.504Z,102782.83
2019-03-19T14:10:59.856Z,102781.48
2019-03-19T14:13:34.327Z,102778.88
2019-03-19T14:16:08.046Z,102778.33
2019-03-19T14:18:41.376Z,102785.29
2019-03-19T14:21:14.998Z,102778.76
2019-03-19T14:23:48.321Z,102786.13
2019-03-19T14:26:21.679Z,102779.08
2019-03-19T14:28:55.288Z,102779.49
2019-03-19T14:31:28.839Z,102786.34
2019-03-19T14:34:02.865Z,102781.12
2019-03-19T14:36:36.401Z,102782.37
2019-03-19T14:39:09.747Z,102774.91
2019-03-19T14:41:45.585Z,102774.04
2019-03-19T14:44:18.344Z,102773.58
2019-03-19T14:46:51.694Z,102775.32
2019-03-19T14:49:25.333Z,102779.64
2019-03-19T14:51:58.676Z,102771.83
2019-03-19T14:54:32.226Z,102711.30
2019-03-19T14:57:05.995Z,102774.88
2019-03-19T14:59:39.578Z,102782.23
2019-03-19T15:02:13.516Z,102777.48
2019-03-19T15:04:47.564Z,102775.73
2019-03-19T15:07:21.091Z,102776.61
2019-03-19T15:09:54.878Z,102779.23
2019-03-19T15:12:28.299Z,102779.19
2019-03-19T15:15:01.869Z,102781.73
2019-03-19T15:17:35.843Z,102781.72
2019-03-19T15:20:11.986Z,102782.23
2019-03-19T15:22:45.567Z,102783.55
2019-03-19T15:25:19.000Z,102788.34
2019-03-19T15:27:52.817Z,102780.52
2019-03-19T15:30:26.303Z,102782.28
2019-03-19T15:33:00.103Z,102785.78
2019-03-19T15:35:34.158Z,102788.83
2019-03-19T15:38:07.551Z,102790.09
2019-03-19T15:40:41.887Z,102786.28
2019-03-19T15:43:18.892Z,102782.86
2019-03-19T15:45:53.112Z,102785.44
2019-03-19T15:48:26.533Z,102790.20
2019-03-19T15:51:01.016Z,102786.66
2019-03-19T15:53:35.450Z,102786.66
2019-03-19T15:56:08.864Z,102784.86
2019-03-19T15:58:42.859Z,102787.89
2019-03-19T16:01:17.195Z,102794.52
2019-03-19T16:03:50.834Z,102792.73
2019-03-19T16:06:24.307Z,102786.74
2019-03-19T16:08:57.773Z,102782.08
2019-03-19T16:11:31.473Z,102779.94
2019-03-19T16:14:05.119Z,102782.22
2019-03-19T16:16:38.791Z,102780.94
2019-03-19T16:19:12.715Z,102780.83
2019-03-19T16:21:47.606Z,102781.83
2019-03-19T16:24:22.601Z,102784.47
2019-03-19T16:26:56.551Z,102785.77
2019-03-19T16:29:30.119Z,102789.64
2019-03-19T16:32:03.545Z,102786.20
2019-03-19T16:34:38.553Z,102786.25
2019-03-19T16:37:13.846Z,102785.73
2019-03-19T16:39:47.299Z,102785.33
2019-03-19T16:42:20.965Z,102786.16
2019-03-19T16:44:54.352Z,102793.03
2019-03-19T16:47:29.157Z,102786.88
2019-03-19T16:50:04.841Z,102789.95
2019-03-19T16:52:38.449Z,102795.08
2019-03-19T16:55:14.795Z,102796.87
2019-03-19T16:57:48.477Z,102797.30
2019-03-19T17:00:27.471Z,102798.58
2019-03-19T17:03:00.796Z,102801.59
2019-03-19T17:05:34.155Z,102802.91
2019-03-19T17:08:08.002Z,102805.89
2019-03-19T17:10:42.969Z,102801.18
2019-03-19T17:13:16.372Z,102802.91
2019-03-19T17:15:49.790Z,102798.12
2019-03-19T17:18:23.263Z,102804.64
2019-03-19T17:20:56.698Z,102811.58
2019-03-19T17:23:30.233Z,102815.00
2019-03-19T17:26:03.735Z,102813.30
2019-03-19T17:28:37.314Z,102818.89
2019-03-19T17:31:10.536Z,102821.05
2019-03-19T17:33:44.049Z,102829.24
2019-03-19T17:36:17.381Z,102830.55
2019-03-19T17:38:50.573Z,102740.98
2019-03-19T17:41:23.938Z,102825.65
2019-03-19T17:43:57.944Z,102835.09
2019-03-19T17:46:31.296Z,102840.25
2019-03-19T17:49:04.603Z,102837.22
2019-03-19T17:51:37.942Z,102846.31
2019-03-19T17:54:11.688Z,102840.63
2019-03-19T17:56:55.382Z,102842.77
2019-03-19T17:59:28.776Z,102848.81
2019-03-19T18:02:02.473Z,102850.53
2019-03-19T18:04:35.882Z,102846.61
2019-03-19T18:07:09.375Z,102840.95
2019-03-19T18:09:42.646Z,102850.52
2019-03-19T18:12:16.042Z,102850.44
2019-03-19T18:14:49.250Z,102854.74
2019-03-19T18:17:22.941Z,102860.83
2019-03-19T18:19:56.553Z,102862.51
2019-03-19T18:22:29.986Z,102866.84
2019-03-19T18:25:04.261Z,102867.63
2019-03-19T18:27:37.616Z,102868.45
2019-03-19T18:30:15.303Z,102872.78
2019-03-19T18:32:48.728Z,102874.43
2019-03-19T18:35:22.050Z,102885.23
2019-03-19T18:37:55.517Z,102881.73
2019-03-19T18:40:30.260Z,102889.52
2019-03-19T18:43:03.776Z,102887.69
2019-03-19T18:45:37.060Z,102893.26
2019-03-19T18:48:10.235Z,102897.92
2019-03-19T18:50:43.458Z,102903.53
2019-03-19T18:53:16.812Z,102910.43
2019-03-19T18:55:50.187Z,102906.89
2019-03-19T18:58:25.478Z,102907.29
2019-03-19T19:01:02.447Z,102911.47
2019-03-19T19:03:35.806Z,102915.85
2019-03-19T19:06:09.123Z,102910.59
2019-03-19T19:08:42.628Z,102916.24
2019-03-19T19:11:16.259Z,102813.28
2019-03-19T19:13:51.172Z,102920.89
2019-03-19T19:16:24.477Z,102923.60
2019-03-19T19:18:59.415Z,102926.73
2019-03-19T19:21:32.812Z,102922.92
2019-03-19T19:24:06.500Z,102923.11
2019-03-19T19:26:39.813Z,102929.32
2019-03-19T19:29:13.188Z,102929.05
2019-03-19T19:31:46.505Z,102935.40
2019-03-19T19:34:19.878Z,102939.10
2019-03-19T19:36:53.286Z,102940.18
2019-03-19T19:39:26.618Z,102947.36
2019-03-19T19:41:59.934Z,102947.53
2019-03-19T19:44:33.504Z,102950.23
2019-03-19T19:47:06.863Z,102953.77
2019-03-19T19:49:40.218Z,102950.84
2019-03-19T19:52:13.435Z,102957.80
2019-03-19T19:54:47.039Z,102959.61
2019-03-19T19:57:20.605Z,102963.11
2019-03-19T19:59:54.032Z,102968.30
2019-03-19T20:02:27.575Z,102973.46
2019-03-19T20:05:03.334Z,102967.38
2019-03-19T20:07:36.867Z,102979.53
2019-03-19T20:10:16.284Z,102980.38
2019-03-19T20:12:49.747Z,102981.63
2019-03-19T20:15:23.245Z,102977.63
2019-03-19T20:17:56.927Z,102975.44
2019-03-19T20:20:32.273Z,102975.03
2019-03-19T20:23:05.518Z,102970.67
2019-03-19T20:25:38.993Z,102973.69
2019-03-19T20:28:12.404Z,102962.30
2019-03-19T20:30:45.816Z,102965.79
2019-03-19T20:33:25.010Z,102961.87
2019-03-19T20:35:59.130Z,102961.41
2019-03-19T20:38:32.465Z,102960.08
2019-03-19T20:41:05.855Z,102967.80
2019-03-19T20:43:40.323Z,102966.03
2019-03-19T20:46:13.821Z,102962.44
2019-03-19T20:48:47.335Z,102969.48
2019-03-19T20:51:20.718Z,102974.19
2019-03-19T20:53:54.343Z,102979.78
2019-03-19T20:56:27.817Z,102967.90
2019-03-19T20:59:01.205Z,102970.95
2019-03-19T21:01:34.526Z,102966.14
2019-03-19T21:04:07.944Z,102972.23
2019-03-19T21:06:41.421Z,102974.81
2019-03-19T21:09:15.013Z,102986.53
2019-03-19T21:11:48.362Z,102985.18
2019-03-19T21:14:22.190Z,102987.23
2019-03-19T21:16:57.497Z,102990.70
2019-03-19T21:19:30.648Z,102986.37
2019-03-19T21:22:03.995Z,102988.87
2019-03-19T21:24:37.348Z,102983.72
2019-03-19T21:27:10.766Z,102985.81
2019-03-19T21:29:44.134Z,102992.27
2019-03-19T21:32:17.504Z,102998.34
2019-03-19T21:34:51.903Z,103002.16
2019-03-19T21:37:25.452Z,103003.88
2019-03-19T21:39:58.958Z,103012.52
2019-03-19T21:42:32.321Z,103004.70
2019-03-19T21:45:10.550Z,103003.80
2019-03-19T21:47:44.176Z,103010.73
2019-03-19T21:50:19.014Z,103014.53
2019-03-19T21:52:54.036Z,103014.08
2019-03-19T21:55:27.468Z,103008.42
2019-03-19T21:58:00.890Z,103002.28
2019-03-19T22:00:34.448Z,103009.19
2019-03-19T22:03:08.148Z,103002.59
2019-03-19T22:05:43.490Z,102997.27
2019-03-19T22:08:16.913Z,102998.55
2019-03-19T22:10:50.376Z,102988.98
2019-03-19T22:13:23.693Z,102977.16
2019-03-19T22:15:57.258Z,102979.77
2019-03-19T22:18:30.673Z,102983.22
2019-03-19T22:21:04.067Z,102986.64
2019-03-19T22:23:40.631Z,102979.17
2019-03-19T22:26:15.482Z,102983.07
2019-03-19T22:28:48.853Z,102988.22
2019-03-19T22:31:22.195Z,102987.77
2019-03-19T22:33:55.766Z,102995.87
2019-03-19T22:36:29.284Z,102997.58
2019-03-19T22:39:02.696Z,102998.48
2019-03-19T22:41:37.651Z,102996.73
2019-03-19T22:44:10.966Z,103001.11
2019-03-19T22:46:44.470Z,102995.78
2019-03-19T22:49:17.909Z,103000.48
2019-03-19T22:51:51.414Z,102996.61
2019-03-19T22:54:24.751Z,103000.93
2019-03-19T22:56:58.083Z,102999.99
2019-03-19T22:59:31.563Z,102996.48
2019-03-19T23:02:05.156Z,102997.27
2019-03-19T23:04:38.468Z,103009.42
2019-03-19T23:07:11.828Z,103000.69
2019-03-19T23:09:45.171Z,103002.80
2019-03-19T23:12:20.109Z,103010.70
2019-03-19T23:14:53.594Z,103002.83
2019-03-19T23:17:27.061Z,103009.76
2019-03-19T23:20:00.393Z,103010.12
2019-03-19T23:22:33.883Z,103010.52
2019-03-19T23:25:07.339Z,103014.25
2019-03-19T23:27:41.069Z,103013.77
2019-03-19T23:30:22.434Z,103006.36
2019-03-19T23:32:55.786Z,103004.61
2019-03-19T23:35:29.659Z,103008.41
2019-03-19T23:38:03.867Z,103013.55
2019-03-19T23:40:37.255Z,103013.94
2019-03-19T23:43:11.182Z,103019.50
2019-03-19T23:45:44.770Z,103023.33
2019-03-19T23:48:18.623Z,103028.08
2019-03-19T23:50:52.316Z,103030.58
2019-03-19T23:53:25.997Z,103026.61
2019-03-19T23:56:00.409Z,103030.48
2019-03-19T23:58:34.481Z,103032.98
